Time;durP1;ratioP1;P1;durP2;ratioP2;P2;SDS_P1;SDS_P2;PMS_P1;PMS_P2;Temp;Humidity;BMP_temperature;BMP_pressure;BME280_temperature;BME280_humidity;BME280_pressure;Samples;Min_cycle;Max_cycle;Signal;HPM_P1;HPM_P2
2021/10/02 00:35:08;;;;;;;9.63;6.10;;;;;;;;;;4950404;28;20039;-83
2021/10/02 00:37:52;;;;;;;9.43;6.57;;;;;;;;;;4971224;28;20091;-81
2021/10/02 00:45:50;;;;;;;10.75;6.82;;;;;;;;;;5012294;28;20041;-81
2021/10/02 00:48:16;;;;;;;9.48;6.90;;;;;;;;;;4991071;28;20034;-83
2021/10/02 00:50:45;;;;;;;10.85;6.95;;;;;;;;;;4979817;28;20035;-80
2021/10/02 00:53:10;;;;;;;9.43;7.72;;;;;;;;;;5012816;28;20045;-81
2021/10/02 00:55:36;;;;;;;9.50;7.13;;;;;;;;;;5012076;28;20030;-83
2021/10/02 00:58:01;;;;;;;9.88;7.18;;;;;;;;;;5019107;28;20089;-82
2021/10/02 01:00:27;;;;;;;9.55;7.65;;;;;;;;;;4996925;28;20044;-80
2021/10/02 01:03:17;;;;;;;9.90;7.40;;;;;;;;;;5015502;28;20064;-81
2021/10/02 01:06:00;;;;;;;11.68;7.20;;;;;;;;;;5013975;28;20480;-83
2021/10/02 01:08:37;;;;;;;13.05;8.02;;;;;;;;;;5013824;28;20053;-83
2021/10/02 01:11:24;;;;;;;12.90;7.53;;;;;;;;;;5029089;28;20036;-81
2021/10/02 01:14:07;;;;;;;12.13;7.70;;;;;;;;;;5014634;28;20722;-84
2021/10/02 01:16:37;;;;;;;9.45;7.20;;;;;;;;;;5030684;28;20025;-81
2021/10/02 01:19:05;;;;;;;12.43;7.90;;;;;;;;;;5028808;28;20064;-80
2021/10/02 01:21:50;;;;;;;14.38;8.60;;;;;;;;;;5018885;28;20033;-83
2021/10/02 01:24:56;;;;;;;13.88;8.13;;;;;;;;;;5035331;28;20151;-83
2021/10/02 01:27:46;;;;;;;10.80;7.65;;;;;;;;;;5029692;28;20534;-83
2021/10/02 01:30:39;;;;;;;10.98;7.82;;;;;;;;;;5052018;28;20117;-83
2021/10/02 01:33:07;;;;;;;12.48;8.50;;;;;;;;;;5018597;28;20492;-81
2021/10/02 01:35:46;;;;;;;9.55;7.25;;;;;;;;;;5037453;28;20033;-80
2021/10/02 01:49:17;;;;;;;11.75;7.80;;;;;;;;;;5035612;28;20539;-81
2021/10/02 01:51:44;;;;;;;11.38;7.65;;;;;;;;;;5036150;28;20084;-82
2021/10/02 01:54:11;;;;;;;10.50;7.45;;;;;;;;;;5028888;28;20046;-81
2021/10/02 01:56:39;;;;;;;11.82;6.93;;;;;;;;;;5023931;28;20419;-81
2021/10/02 01:59:05;;;;;;;11.68;7.30;;;;;;;;;;5036638;28;20026;-80
2021/10/02 02:01:31;;;;;;;11.93;7.43;;;;;;;;;;5003465;28;20082;-81
2021/10/02 02:03:58;;;;;;;10.43;6.75;;;;;;;;;;5030238;28;20096;-83
2021/10/02 02:06:26;;;;;;;10.68;7.28;;;;;;;;;;4994144;28;20036;-81
2021/10/02 02:08:52;;;;;;;10.38;7.93;;;;;;;;;;5004024;28;20034;-81
2021/10/02 02:11:18;;;;;;;11.68;7.78;;;;;;;;;;4978277;28;20038;-83
2021/10/02 02:13:44;;;;;;;10.65;8.63;;;;;;;;;;5036331;28;20034;-80
2021/10/02 02:16:11;;;;;;;12.68;7.95;;;;;;;;;;5009121;28;20056;-80
2021/10/02 02:18:37;;;;;;;10.90;8.10;;;;;;;;;;5014040;28;20039;-80
2021/10/02 02:21:07;;;;;;;10.80;7.38;;;;;;;;;;5032397;28;20029;-83
2021/10/02 02:23:34;;;;;;;13.40;8.77;;;;;;;;;;5020059;28;20025;-80
2021/10/02 02:26:03;;;;;;;11.57;8.32;;;;;;;;;;5016421;28;20044;-83
2021/10/02 02:28:30;;;;;;;10.73;8.75;;;;;;;;;;5033191;28;20013;-80
2021/10/02 02:30:55;;;;;;;13.93;9.73;;;;;;;;;;5001191;28;20038;-83
2021/10/02 02:33:21;;;;;;;12.70;8.95;;;;;;;;;;5005530;28;20123;-81
2021/10/02 02:35:46;;;;;;;11.90;8.48;;;;;;;;;;5016834;28;20393;-81
2021/10/02 02:38:13;;;;;;;14.23;9.02;;;;;;;;;;5032785;28;20121;-83
2021/10/02 02:40:39;;;;;;;11.82;8.90;;;;;;;;;;5017122;28;20038;-83
2021/10/02 02:43:07;;;;;;;14.20;8.70;;;;;;;;;;5034718;28;20087;-81
2021/10/02 02:45:32;;;;;;;12.75;7.80;;;;;;;;;;5018368;28;20436;-83
2021/10/02 02:48:13;;;;;;;13.48;8.32;;;;;;;;;;5005466;28;20364;-80
2021/10/02 02:50:48;;;;;;;10.77;8.10;;;;;;;;;;5036760;28;20102;-80
2021/10/02 02:53:52;;;;;;;11.20;8.20;;;;;;;;;;5033596;28;20501;-80
2021/10/02 02:56:29;;;;;;;12.15;7.85;;;;;;;;;;5049866;28;20117;-80
2021/10/02 02:58:59;;;;;;;12.02;8.35;;;;;;;;;;5017770;28;20037;-80
2021/10/02 03:01:25;;;;;;;12.93;8.43;;;;;;;;;;5030148;28;20037;-80
2021/10/02 03:03:54;;;;;;;12.00;7.97;;;;;;;;;;5020260;28;20059;-80
2021/10/02 03:06:21;;;;;;;10.82;7.80;;;;;;;;;;5016325;28;20040;-80
2021/10/02 03:08:51;;;;;;;15.02;8.85;;;;;;;;;;5012992;28;20392;-80
2021/10/02 03:11:19;;;;;;;13.18;9.40;;;;;;;;;;5021896;28;20117;-81
2021/10/02 03:13:48;;;;;;;12.55;8.95;;;;;;;;;;5011150;28;20087;-80
2021/10/02 03:16:14;;;;;;;11.63;9.10;;;;;;;;;;5016651;28;20556;-80
2021/10/02 03:18:43;;;;;;;14.57;9.25;;;;;;;;;;5014027;28;20052;-81
2021/10/02 03:21:09;;;;;;;15.27;10.40;;;;;;;;;;5011703;28;20510;-83
2021/10/02 03:23:35;;;;;;;14.45;10.02;;;;;;;;;;4999168;28;20030;-81
2021/10/02 03:26:01;;;;;;;14.18;9.88;;;;;;;;;;5016309;28;20029;-80
2021/10/02 03:28:29;;;;;;;14.30;10.02;;;;;;;;;;5024075;28;20080;-81
2021/10/02 03:30:56;;;;;;;14.57;11.18;;;;;;;;;;5017377;28;20032;-81
2021/10/02 03:33:24;;;;;;;19.95;11.43;;;;;;;;;;5035902;28;20079;-81
2021/10/02 03:35:50;;;;;;;15.25;10.98;;;;;;;;;;5033292;28;20018;-80
2021/10/02 03:38:16;;;;;;;17.92;11.77;;;;;;;;;;4998918;28;20121;-81
2021/10/02 03:40:41;;;;;;;17.85;12.77;;;;;;;;;;5030097;28;20056;-83
2021/10/02 03:43:07;;;;;;;17.05;12.27;;;;;;;;;;5019110;28;20052;-83
2021/10/02 03:45:36;;;;;;;14.18;11.45;;;;;;;;;;5003621;28;20251;-80
2021/10/02 03:48:02;;;;;;;16.00;12.50;;;;;;;;;;5018593;28;20036;-80
2021/10/02 03:50:28;;;;;;;19.35;13.27;;;;;;;;;;5015943;28;20025;-80
2021/10/02 03:52:53;;;;;;;16.38;12.45;;;;;;;;;;5029768;28;20037;-80
2021/10/02 03:55:19;;;;;;;15.55;12.07;;;;;;;;;;5003176;28;20041;-80
2021/10/02 03:57:44;;;;;;;17.38;12.85;;;;;;;;;;5017482;28;20481;-83
2021/10/02 04:00:11;;;;;;;19.02;12.80;;;;;;;;;;5011991;28;20037;-81
2021/10/02 04:02:37;;;;;;;19.08;12.90;;;;;;;;;;5019181;28;20108;-82
2021/10/02 04:05:03;;;;;;;16.08;12.52;;;;;;;;;;5019662;28;20060;-80
2021/10/02 04:07:28;;;;;;;19.17;11.80;;;;;;;;;;5054621;28;20035;-81
2021/10/02 04:09:54;;;;;;;15.60;11.27;;;;;;;;;;5017252;28;20025;-80
2021/10/02 04:12:20;;;;;;;16.23;11.75;;;;;;;;;;5029664;28;20084;-80
2021/10/02 04:14:47;;;;;;;15.68;11.00;;;;;;;;;;5019819;28;20120;-80
2021/10/02 04:17:13;;;;;;;16.05;11.05;;;;;;;;;;5051604;28;20029;-81
2021/10/02 04:19:39;;;;;;;20.00;11.63;;;;;;;;;;5004890;28;20056;-83
2021/10/02 04:22:05;;;;;;;16.98;10.80;;;;;;;;;;4996231;28;20052;-80
2021/10/02 04:24:30;;;;;;;13.40;10.10;;;;;;;;;;5034207;28;20393;-80
2021/10/02 04:26:58;;;;;;;14.93;10.00;;;;;;;;;;5032900;28;20033;-80
2021/10/02 04:29:25;;;;;;;12.07;10.10;;;;;;;;;;5014461;28;20087;-83
2021/10/02 04:31:51;;;;;;;14.93;9.70;;;;;;;;;;5034645;28;22200;-83
2021/10/02 04:34:16;;;;;;;15.43;9.38;;;;;;;;;;5020085;28;20116;-80
2021/10/02 04:36:41;;;;;;;13.10;9.55;;;;;;;;;;5018447;28;20033;-81
2021/10/02 04:39:07;;;;;;;17.00;10.07;;;;;;;;;;5032653;28;20454;-83
2021/10/02 04:41:32;;;;;;;14.32;10.50;;;;;;;;;;5034019;28;20029;-80
2021/10/02 04:43:58;;;;;;;17.10;10.70;;;;;;;;;;5016878;28;20102;-83
2021/10/02 04:46:23;;;;;;;16.73;10.65;;;;;;;;;;5002996;28;20029;-83
2021/10/02 04:48:49;;;;;;;16.23;11.15;;;;;;;;;;5009878;28;20428;-80
2021/10/02 04:51:14;;;;;;;16.30;11.35;;;;;;;;;;5015182;28;20496;-83
2021/10/02 04:53:40;;;;;;;16.70;10.90;;;;;;;;;;5031198;28;20053;-81
2021/10/02 04:56:10;;;;;;;18.08;11.45;;;;;;;;;;5036451;28;20499;-83
2021/10/02 04:58:36;;;;;;;16.35;11.82;;;;;;;;;;5000611;28;20035;-82
2021/10/02 05:01:03;;;;;;;16.63;10.73;;;;;;;;;;5012908;28;20052;-81
2021/10/02 05:03:28;;;;;;;17.42;11.15;;;;;;;;;;5016445;28;20037;-83
2021/10/02 05:05:54;;;;;;;16.05;10.90;;;;;;;;;;5015079;28;20038;-83
2021/10/02 05:08:20;;;;;;;15.65;11.02;;;;;;;;;;5019422;28;20554;-81
2021/10/02 05:10:46;;;;;;;15.50;10.88;;;;;;;;;;5005837;28;20034;-81
2021/10/02 05:13:11;;;;;;;13.52;10.27;;;;;;;;;;5032136;28;20053;-83
2021/10/02 05:15:37;;;;;;;16.42;10.95;;;;;;;;;;5018238;28;20037;-83
2021/10/02 05:18:03;;;;;;;14.48;10.38;;;;;;;;;;5015240;28;20087;-83
2021/10/02 05:20:31;;;;;;;16.88;10.40;;;;;;;;;;4992407;28;20100;-83
2021/10/02 05:22:57;;;;;;;15.13;10.57;;;;;;;;;;4999647;28;20052;-81
2021/10/02 05:25:23;;;;;;;13.13;9.45;;;;;;;;;;5033473;28;20045;-80
2021/10/02 05:27:49;;;;;;;17.40;9.95;;;;;;;;;;5031256;28;20029;-80
2021/10/02 05:30:14;;;;;;;14.50;10.38;;;;;;;;;;5010236;28;20036;-80
2021/10/02 05:32:40;;;;;;;14.38;10.38;;;;;;;;;;5015771;28;20061;-80
2021/10/02 05:35:06;;;;;;;14.13;10.07;;;;;;;;;;5006393;28;20045;-80
2021/10/02 05:37:31;;;;;;;14.90;10.55;;;;;;;;;;5013792;28;20108;-80
2021/10/02 05:39:56;;;;;;;13.85;9.75;;;;;;;;;;5015542;28;20189;-80
2021/10/02 05:42:22;;;;;;;13.00;9.80;;;;;;;;;;5014363;28;20034;-80
2021/10/02 05:44:47;;;;;;;14.05;10.63;;;;;;;;;;5011713;28;20073;-80
2021/10/02 05:47:13;;;;;;;15.13;10.07;;;;;;;;;;5016898;28;20104;-83
2021/10/02 05:49:39;;;;;;;16.15;10.75;;;;;;;;;;5015320;28;20037;-80
2021/10/02 05:52:06;;;;;;;15.45;10.70;;;;;;;;;;4998688;28;20026;-83
2021/10/02 05:54:31;;;;;;;14.35;9.90;;;;;;;;;;5016610;28;20049;-79
2021/10/02 05:56:58;;;;;;;18.20;10.88;;;;;;;;;;5015136;28;20505;-80
2021/10/02 05:59:23;;;;;;;16.55;10.45;;;;;;;;;;5003218;28;20041;-80
2021/10/02 06:01:49;;;;;;;14.82;9.90;;;;;;;;;;4984551;28;20040;-81
2021/10/02 06:04:14;;;;;;;14.30;10.10;;;;;;;;;;5031791;28;20421;-80
2021/10/02 06:06:39;;;;;;;17.50;10.55;;;;;;;;;;5015488;28;20029;-79
2021/10/02 06:09:05;;;;;;;13.25;10.27;;;;;;;;;;5029607;28;20128;-80
2021/10/02 06:11:30;;;;;;;17.48;11.45;;;;;;;;;;5004622;28;20033;-80
2021/10/02 06:13:58;;;;;;;15.48;10.70;;;;;;;;;;5001618;28;20392;-80
2021/10/02 06:16:23;;;;;;;16.02;10.68;;;;;;;;;;5021968;28;20159;-82
2021/10/02 06:18:48;;;;;;;14.65;10.65;;;;;;;;;;5021564;28;20077;-83
2021/10/02 06:21:14;;;;;;;15.27;9.68;;;;;;;;;;5016799;28;20030;-79
2021/10/02 06:23:40;;;;;;;13.32;9.75;;;;;;;;;;4993998;28;20072;-80
2021/10/02 06:26:06;;;;;;;15.65;10.10;;;;;;;;;;5037531;28;20460;-80
2021/10/02 06:28:32;;;;;;;14.73;10.13;;;;;;;;;;5033380;28;20056;-80
2021/10/02 06:30:57;;;;;;;15.85;9.85;;;;;;;;;;5020184;28;20040;-82
2021/10/02 06:33:23;;;;;;;15.48;10.10;;;;;;;;;;5018215;28;20508;-81
2021/10/02 06:35:48;;;;;;;13.95;10.25;;;;;;;;;;5034813;28;20037;-80
2021/10/02 06:38:15;;;;;;;15.48;10.18;;;;;;;;;;4986386;28;20026;-81
2021/10/02 06:40:42;;;;;;;15.38;9.23;;;;;;;;;;5036300;28;20098;-83
2021/10/02 06:43:07;;;;;;;17.33;10.38;;;;;;;;;;5001582;28;20112;-83
2021/10/02 06:45:33;;;;;;;16.90;10.35;;;;;;;;;;5014952;28;20033;-80
2021/10/02 06:47:58;;;;;;;15.63;10.50;;;;;;;;;;5009403;28;20481;-83
2021/10/02 06:50:24;;;;;;;14.88;9.80;;;;;;;;;;5016455;28;20040;-80
2021/10/02 06:52:55;;;;;;;13.70;9.55;;;;;;;;;;5011932;28;20117;-80
2021/10/02 06:55:25;;;;;;;15.35;10.02;;;;;;;;;;5018359;28;20060;-83
2021/10/02 06:57:59;;;;;;;17.50;10.13;;;;;;;;;;5021787;28;20476;-80
2021/10/02 07:00:24;;;;;;;15.70;10.75;;;;;;;;;;5017318;28;20120;-80
2021/10/02 07:02:50;;;;;;;15.02;9.60;;;;;;;;;;5032276;28;20055;-83
2021/10/02 07:05:27;;;;;;;19.17;10.00;;;;;;;;;;5004043;28;20751;-80
2021/10/02 07:07:53;;;;;;;18.90;10.52;;;;;;;;;;5014230;28;20132;-80
2021/10/02 07:10:20;;;;;;;13.93;10.00;;;;;;;;;;5010555;28;20113;-80
2021/10/02 07:12:50;;;;;;;14.68;9.50;;;;;;;;;;5011338;28;20050;-81
2021/10/02 07:15:16;;;;;;;13.63;9.95;;;;;;;;;;5028362;28;20045;-81
2021/10/02 07:17:43;;;;;;;16.48;10.57;;;;;;;;;;5026918;28;20095;-81
2021/10/02 07:20:31;;;;;;;15.90;9.15;;;;;;;;;;5015347;28;20030;-81
2021/10/02 07:22:59;;;;;;;15.00;9.05;;;;;;;;;;5046146;28;20029;-81
2021/10/02 07:25:33;;;;;;;13.20;8.88;;;;;;;;;;5014071;28;20037;-81
2021/10/02 07:28:02;;;;;;;16.48;9.68;;;;;;;;;;4992905;28;20033;-80
2021/10/02 07:30:31;;;;;;;13.60;9.40;;;;;;;;;;5013271;28;20037;-80
2021/10/02 07:33:02;;;;;;;12.43;8.48;;;;;;;;;;5001588;28;20029;-81
2021/10/02 07:35:34;;;;;;;15.00;8.05;;;;;;;;;;4996171;28;20539;-81
2021/10/02 07:38:03;;;;;;;14.13;8.73;;;;;;;;;;5019696;28;20056;-81
2021/10/02 07:40:37;;;;;;;16.20;9.82;;;;;;;;;;5033638;28;20040;-82
2021/10/02 07:43:06;;;;;;;16.77;8.82;;;;;;;;;;5004766;28;20025;-83
2021/10/02 07:45:35;;;;;;;14.13;9.48;;;;;;;;;;5002807;28;20033;-81
2021/10/02 07:48:05;;;;;;;12.85;8.32;;;;;;;;;;5018624;28;20033;-81
2021/10/02 07:50:40;;;;;;;14.82;8.65;;;;;;;;;;5030878;28;20099;-84
2021/10/02 07:53:05;;;;;;;14.80;9.02;;;;;;;;;;5033757;28;20028;-81
2021/10/02 07:55:39;;;;;;;17.98;10.15;;;;;;;;;;5016023;28;20038;-81
2021/10/02 07:58:07;;;;;;;11.63;8.90;;;;;;;;;;5013591;28;20026;-84
2021/10/02 08:00:37;;;;;;;12.43;9.30;;;;;;;;;;4999529;28;20033;-81
2021/10/02 08:03:05;;;;;;;13.40;8.80;;;;;;;;;;5016918;28;20041;-82
2021/10/02 08:05:42;;;;;;;15.48;9.23;;;;;;;;;;5017473;28;20466;-82
2021/10/02 08:08:08;;;;;;;12.25;8.82;;;;;;;;;;5022659;28;20060;-80
2021/10/02 08:10:51;;;;;;;;;;;;;;;;;;;;;
2021/10/02 08:13:39;;;;;;;12.73;8.80;;;;;;;;;;5032126;28;20577;-83
2021/10/02 08:16:10;;;;;;;12.75;8.32;;;;;;;;;;4997460;28;20129;-81
2021/10/02 08:18:41;;;;;;;14.50;8.63;;;;;;;;;;5002545;28;20152;-81
2021/10/02 08:21:09;;;;;;;11.63;7.60;;;;;;;;;;5034174;28;20036;-81
2021/10/02 08:23:42;;;;;;;13.07;8.27;;;;;;;;;;4996927;28;20164;-80
2021/10/02 08:26:14;;;;;;;11.07;7.75;;;;;;;;;;5031556;28;20059;-83
2021/10/02 08:29:12;;;;;;;13.90;8.45;;;;;;;;;;5013464;28;20033;-80
2021/10/02 08:31:41;;;;;;;11.07;7.45;;;;;;;;;;4980451;28;20100;-81
2021/10/02 08:34:13;;;;;;;14.82;8.10;;;;;;;;;;5008224;28;20061;-80
2021/10/02 08:36:42;;;;;;;13.38;7.93;;;;;;;;;;5008995;28;20049;-80
2021/10/02 08:39:07;;;;;;;17.42;8.32;;;;;;;;;;5013836;28;20029;-83
2021/10/02 08:41:34;;;;;;;13.57;8.20;;;;;;;;;;4995156;28;20425;-80
2021/10/02 08:44:00;;;;;;;12.38;8.10;;;;;;;;;;5002198;28;20078;-84
2021/10/02 08:46:26;;;;;;;14.25;8.57;;;;;;;;;;5023255;28;20711;-81
2021/10/02 08:49:22;;;;;;;11.93;7.85;;;;;;;;;;5014931;28;20034;-80
2021/10/02 08:51:49;;;;;;;15.40;9.07;;;;;;;;;;5014654;28;20025;-83
2021/10/02 08:54:18;;;;;;;15.00;9.02;;;;;;;;;;5012763;28;20085;-82
2021/10/02 08:56:45;;;;;;;16.50;10.05;;;;;;;;;;5031392;28;20483;-83
2021/10/02 08:59:13;;;;;;;14.88;9.43;;;;;;;;;;5017451;28;20041;-81
2021/10/02 09:01:40;;;;;;;13.93;9.05;;;;;;;;;;4997560;28;20029;-83
2021/10/02 09:04:05;;;;;;;13.13;9.20;;;;;;;;;;5015544;28;20385;-83
2021/10/02 09:06:33;;;;;;;16.88;9.55;;;;;;;;;;5000935;28;20026;-80
2021/10/02 09:08:59;;;;;;;16.30;9.95;;;;;;;;;;5027438;28;20029;-80
2021/10/02 09:11:27;;;;;;;17.77;11.13;;;;;;;;;;5003408;28;20032;-84
2021/10/02 09:13:53;;;;;;;17.63;10.43;;;;;;;;;;4999644;28;20029;-81
2021/10/02 09:16:18;;;;;;;19.77;11.18;;;;;;;;;;5001399;28;20397;-81
2021/10/02 09:18:46;;;;;;;15.70;11.20;;;;;;;;;;5008840;28;20037;-81
2021/10/02 09:21:12;;;;;;;12.43;9.77;;;;;;;;;;4996610;28;20030;-83
2021/10/02 09:23:56;;;;;;;14.45;9.63;;;;;;;;;;4995187;28;20068;-80
2021/10/02 09:26:49;;;;;;;13.13;9.95;;;;;;;;;;5010922;28;20433;-81
2021/10/02 09:29:34;;;;;;;;;;;;;;;;;;5027500;28;20040;-81
2021/10/02 09:32:29;;;;;;;12.60;9.00;;;;;;;;;;5014800;28;19921;-80
2021/10/02 09:34:58;;;;;;;12.70;8.80;;;;;;;;;;5022059;28;20044;-81
2021/10/02 09:43:44;;;;;;;;;;;;;;;;;;;;;
2021/10/02 09:46:54;;;;;;;8.40;6.13;;;;;;;;;;5024094;28;20037;-82
2021/10/02 09:49:23;;;;;;;8.38;5.78;;;;;;;;;;4984635;28;20044;-80
2021/10/02 09:51:56;;;;;;;8.32;5.80;;;;;;;;;;5029144;28;20036;-80
2021/10/02 09:54:37;;;;;;;8.68;5.75;;;;;;;;;;4997944;28;20434;-80
2021/10/02 09:57:11;;;;;;;10.60;5.82;;;;;;;;;;5031575;28;20069;-81
2021/10/02 10:00:30;;;;;;;10.65;5.47;;;;;;;;;;5029269;28;20069;-85
2021/10/02 10:02:57;;;;;;;11.30;5.32;;;;;;;;;;4991764;28;20208;-81
2021/10/02 10:05:30;;;;;;;9.05;4.65;;;;;;;;;;4969577;28;20553;-81
2021/10/02 10:07:57;;;;;;;;;;;;;;;;;;4970598;28;20035;-81
2021/10/02 10:10:28;;;;;;;7.25;4.70;;;;;;;;;;4976015;28;19921;-83
2021/10/02 10:13:00;;;;;;;6.43;4.20;;;;;;;;;;4970763;28;20058;-81
2021/10/02 10:15:35;;;;;;;6.43;3.95;;;;;;;;;;4990793;28;20030;-80
2021/10/02 10:18:09;;;;;;;7.85;3.88;;;;;;;;;;4966304;28;20568;-82
2021/10/02 10:21:02;;;;;;;9.52;3.97;;;;;;;;;;4940910;28;20069;-81
2021/10/02 10:23:34;;;;;;;6.60;3.35;;;;;;;;;;4983501;28;20085;-81
2021/10/02 10:32:04;;;;;;;6.93;3.50;;;;;;;;;;4915498;29;20048;-81
2021/10/02 10:34:31;;;;;;;7.93;3.53;;;;;;;;;;4937072;28;20057;-84
2021/10/02 10:37:05;;;;;;;7.60;3.08;;;;;;;;;;4960819;28;20619;-81
2021/10/02 10:39:34;;;;;;;6.22;2.80;;;;;;;;;;5015982;28;20116;-81
2021/10/02 10:42:04;;;;;;;5.43;2.80;;;;;;;;;;4983795;28;20157;-81
2021/10/02 10:44:33;;;;;;;6.30;2.95;;;;;;;;;;5010341;28;20137;-83
2021/10/02 10:47:02;;;;;;;4.63;2.90;;;;;;;;;;5011272;28;20036;-83
2021/10/02 10:49:37;;;;;;;5.00;2.63;;;;;;;;;;4980264;28;20155;-82
2021/10/02 10:52:05;;;;;;;6.35;2.80;;;;;;;;;;5008717;28;20196;-80
2021/10/02 10:55:37;;;;;;;5.50;2.58;;;;;;;;;;5010225;28;20077;-82
2021/10/02 10:58:40;;;;;;;6.32;2.80;;;;;;;;;;4936445;29;20047;-80
2021/10/02 11:01:09;;;;;;;5.25;2.55;;;;;;;;;;4913974;29;20117;-81
2021/10/02 11:04:05;;;;;;;5.00;2.13;;;;;;;;;;4939752;29;20038;-83
2021/10/02 11:07:13;;;;;;;5.22;2.55;;;;;;;;;;4933267;29;20035;-81
2021/10/02 11:09:43;;;;;;;5.97;3.10;;;;;;;;;;4930310;29;20442;-80
2021/10/02 11:12:16;;;;;;;4.82;2.83;;;;;;;;;;4941675;29;20065;-84
2021/10/02 11:15:09;;;;;;;4.32;2.45;;;;;;;;;;4935315;29;20047;-80
2021/10/02 11:17:44;;;;;;;4.43;2.53;;;;;;;;;;4919870;29;20043;-83
2021/10/02 11:20:39;;;;;;;3.30;2.20;;;;;;;;;;4938318;29;20038;-80
2021/10/02 11:23:40;;;;;;;5.28;2.45;;;;;;;;;;4934298;29;20036;-83
2021/10/02 11:29:45;;;;;;;3.92;1.92;;;;;;;;;;4929565;29;20039;-83
2021/10/02 11:32:41;;;;;;;3.58;2.00;;;;;;;;;;4964841;28;20039;-82
2021/10/02 11:35:40;;;;;;;3.22;1.98;;;;;;;;;;5041157;28;20039;-82
2021/10/02 11:38:41;;;;;;;5.43;2.00;;;;;;;;;;4991615;28;20571;-82
2021/10/02 11:41:44;;;;;;;7.88;2.45;;;;;;;;;;5025907;28;20424;-80
2021/10/02 11:44:19;;;;;;;4.43;1.80;;;;;;;;;;5023412;28;20504;-81
2021/10/02 11:46:44;;;;;;;4.40;2.38;;;;;;;;;;5018328;28;20099;-83
2021/10/02 11:49:16;;;;;;;4.70;2.35;;;;;;;;;;5023073;28;20064;-81
2021/10/02 11:52:13;;;;;;;4.57;2.53;;;;;;;;;;5027603;28;20083;-81
2021/10/02 11:54:40;;;;;;;4.43;2.42;;;;;;;;;;5023196;28;20137;-84
2021/10/02 12:00:36;;;;;;;4.72;2.35;;;;;;;;;;5015978;28;20044;-81
2021/10/02 12:03:03;;;;;;;4.80;2.20;;;;;;;;;;5027550;28;20025;-83
2021/10/02 12:05:30;;;;;;;4.38;1.70;;;;;;;;;;5010197;28;20111;-82
2021/10/02 12:07:56;;;;;;;3.90;1.90;;;;;;;;;;5015269;28;20033;-81
2021/10/02 12:10:22;;;;;;;4.93;1.80;;;;;;;;;;5037065;28;20550;-82
2021/10/02 12:12:48;;;;;;;4.40;1.70;;;;;;;;;;5026993;28;20042;-81
2021/10/02 12:15:33;;;;;;;2.50;1.35;;;;;;;;;;5029546;28;20876;-83
2021/10/02 12:18:17;;;;;;;3.83;1.70;;;;;;;;;;5013645;28;20045;-82
2021/10/02 12:20:49;;;;;;;5.10;1.67;;;;;;;;;;4993205;28;20092;-80
2021/10/02 12:23:17;;;;;;;3.65;1.80;;;;;;;;;;5001257;28;20056;-83
2021/10/02 12:26:18;;;;;;;5.53;1.70;;;;;;;;;;5013738;28;20033;-82
2021/10/02 12:29:21;;;;;;;3.60;1.50;;;;;;;;;;4997189;28;20116;-81
2021/10/02 12:32:20;;;;;;;4.50;1.77;;;;;;;;;;4918103;29;20039;-83
2021/10/02 12:34:53;;;;;;;4.72;1.85;;;;;;;;;;4906207;28;20068;-82
2021/10/02 12:37:50;;;;;;;5.32;1.70;;;;;;;;;;5023928;28;20821;-83
2021/10/02 12:40:17;;;;;;;3.83;1.75;;;;;;;;;;5007159;28;20037;-80
2021/10/02 12:43:31;;;;;;;4.68;1.85;;;;;;;;;;5019395;28;20107;-81
2021/10/02 12:46:23;;;;;;;3.13;1.60;;;;;;;;;;5017855;28;20059;-80
2021/10/02 12:48:49;;;;;;;2.90;1.43;;;;;;;;;;5012243;28;20078;-82
2021/10/02 12:51:15;;;;;;;3.80;1.50;;;;;;;;;;4994053;28;20447;-84
2021/10/02 12:53:43;;;;;;;3.75;1.60;;;;;;;;;;5000296;28;20171;-81
2021/10/02 12:56:18;;;;;;;4.68;1.67;;;;;;;;;;5025136;28;20702;-82
2021/10/02 12:58:43;;;;;;;3.60;1.67;;;;;;;;;;5020314;28;20092;-83
2021/10/02 13:01:09;;;;;;;4.20;1.83;;;;;;;;;;5012525;28;20021;-80
2021/10/02 13:03:39;;;;;;;3.67;1.80;;;;;;;;;;4996266;28;20033;-82
2021/10/02 13:06:05;;;;;;;3.92;1.83;;;;;;;;;;5031527;28;20026;-82
2021/10/02 13:08:30;;;;;;;4.18;2.00;;;;;;;;;;5026076;28;20041;-82
2021/10/02 13:10:56;;;;;;;3.90;2.00;;;;;;;;;;5030455;28;20094;-81
2021/10/02 13:13:21;;;;;;;3.65;1.83;;;;;;;;;;5012443;28;20037;-84
2021/10/02 13:15:53;;;;;;;3.58;1.80;;;;;;;;;;5008378;28;20095;-81
2021/10/02 13:18:25;;;;;;;2.45;1.70;;;;;;;;;;5026487;28;20029;-83
2021/10/02 13:20:53;;;;;;;6.07;1.83;;;;;;;;;;5030798;28;20029;-83
2021/10/02 13:23:40;;;;;;;3.55;1.70;;;;;;;;;;5014800;28;20113;-82
2021/10/02 13:26:17;;;;;;;3.08;1.63;;;;;;;;;;5010159;28;20538;-81
2021/10/02 13:28:43;;;;;;;4.93;2.58;;;;;;;;;;5010441;28;20025;-80
2021/10/02 13:31:15;;;;;;;4.00;1.63;;;;;;;;;;5011508;28;20038;-83
2021/10/02 13:33:46;;;;;;;4.63;1.70;;;;;;;;;;5004513;28;20047;-83
2021/10/02 13:36:24;;;;;;;3.65;1.90;;;;;;;;;;5013967;28;20168;-81
2021/10/02 13:38:50;;;;;;;4.28;1.70;;;;;;;;;;5012474;28;20068;-83
2021/10/02 13:41:16;;;;;;;2.72;1.50;;;;;;;;;;4990839;28;20029;-81
2021/10/02 13:43:56;;;;;;;2.50;1.40;;;;;;;;;;5009020;28;20029;-81
2021/10/02 13:46:30;;;;;;;3.00;1.30;;;;;;;;;;5031005;28;20061;-83
2021/10/02 13:48:59;;;;;;;2.88;1.40;;;;;;;;;;5007149;28;20021;-83
2021/10/02 13:51:25;;;;;;;3.15;1.17;;;;;;;;;;5005721;28;20026;-84
2021/10/02 13:53:51;;;;;;;4.13;1.30;;;;;;;;;;5027448;28;20045;-82
2021/10/02 13:56:27;;;;;;;3.33;1.42;;;;;;;;;;5014041;28;20107;-81
2021/10/02 13:59:05;;;;;;;3.35;1.40;;;;;;;;;;4999138;28;20038;-81
2021/10/02 14:01:34;;;;;;;2.10;1.23;;;;;;;;;;5014857;28;20033;-80
2021/10/02 14:03:59;;;;;;;2.92;1.35;;;;;;;;;;4996548;28;20037;-83
2021/10/02 14:06:25;;;;;;;4.88;1.50;;;;;;;;;;4998610;28;20044;-81
2021/10/02 14:08:51;;;;;;;2.97;1.40;;;;;;;;;;5012483;28;20113;-81
2021/10/02 14:11:17;;;;;;;2.45;1.30;;;;;;;;;;5035226;28;20025;-83
2021/10/02 14:13:43;;;;;;;2.15;1.27;;;;;;;;;;5029493;28;20028;-83
2021/10/02 14:16:09;;;;;;;2.47;1.50;;;;;;;;;;5013347;28;20033;-81
2021/10/02 14:18:37;;;;;;;3.13;1.40;;;;;;;;;;5015436;28;20029;-80
2021/10/02 14:21:02;;;;;;;2.03;1.25;;;;;;;;;;5012422;28;20444;-81
2021/10/02 14:23:28;;;;;;;5.60;1.40;;;;;;;;;;5014679;28;20047;-81
2021/10/02 14:25:53;;;;;;;3.75;1.30;;;;;;;;;;5001316;28;20496;-81
2021/10/02 14:28:22;;;;;;;2.70;1.08;;;;;;;;;;5015385;28;20038;-81
2021/10/02 14:31:09;;;;;;;2.08;1.10;;;;;;;;;;5013119;28;20100;-82
2021/10/02 14:33:39;;;;;;;2.17;1.00;;;;;;;;;;5015795;28;20029;-81
2021/10/02 14:36:12;;;;;;;3.00;1.23;;;;;;;;;;4998661;28;20037;-82
2021/10/02 14:38:40;;;;;;;2.67;1.20;;;;;;;;;;5000281;28;20084;-81
2021/10/02 14:41:12;;;;;;;2.03;1.10;;;;;;;;;;5024143;28;20128;-81
2021/10/02 14:43:40;;;;;;;2.20;1.20;;;;;;;;;;5012047;28;20033;-82
2021/10/02 14:46:13;;;;;;;2.72;1.15;;;;;;;;;;5016269;28;20076;-81
2021/10/02 14:48:41;;;;;;;1.90;1.25;;;;;;;;;;5018530;28;20018;-83
2021/10/02 14:51:17;;;;;;;2.00;1.10;;;;;;;;;;4997984;28;20127;-81
2021/10/02 14:53:43;;;;;;;2.22;1.20;;;;;;;;;;4999269;28;20707;-81
2021/10/02 14:56:12;;;;;;;3.63;1.35;;;;;;;;;;5026460;28;20087;-84
2021/10/02 14:58:45;;;;;;;2.88;1.40;;;;;;;;;;5017990;28;20503;-81
2021/10/02 15:01:15;;;;;;;3.17;1.60;;;;;;;;;;5018183;28;20503;-81
2021/10/02 15:03:44;;;;;;;2.97;1.40;;;;;;;;;;5002780;28;20041;-81
2021/10/02 15:06:16;;;;;;;4.97;1.60;;;;;;;;;;5014541;28;20034;-81
2021/10/02 15:08:46;;;;;;;4.50;1.25;;;;;;;;;;5004093;28;20033;-81
2021/10/02 15:11:14;;;;;;;2.58;1.15;;;;;;;;;;5020856;28;20041;-81
2021/10/02 15:13:47;;;;;;;4.07;1.33;;;;;;;;;;5032818;28;20706;-84
2021/10/02 15:16:18;;;;;;;4.57;1.52;;;;;;;;;;4987219;28;20053;-82
2021/10/02 15:18:48;;;;;;;4.97;1.50;;;;;;;;;;5029986;28;20034;-81
2021/10/02 15:21:18;;;;;;;5.15;1.30;;;;;;;;;;5021674;28;20400;-82
2021/10/02 15:24:07;;;;;;;;;;;;;;;;;;;;;
2021/10/02 15:27:18;;;;;;;2.03;1.10;;;;;;;;;;4942922;28;20047;-81
2021/10/02 15:30:03;;;;;;;;;;;;;;;;;;;;;
2021/10/02 15:32:51;;;;;;;2.33;1.10;;;;;;;;;;4988066;28;20042;-84
2021/10/02 15:35:18;;;;;;;2.92;1.10;;;;;;;;;;5030138;28;20041;-84
2021/10/02 15:37:50;;;;;;;3.70;1.45;;;;;;;;;;5001289;28;20060;-82
2021/10/02 15:40:19;;;;;;;3.30;1.40;;;;;;;;;;5001569;28;20416;-82
2021/10/02 15:42:52;;;;;;;3.30;1.30;;;;;;;;;;5002762;28;20099;-84
2021/10/02 15:45:21;;;;;;;4.97;1.40;;;;;;;;;;5011779;28;20112;-81
2021/10/02 15:47:53;;;;;;;4.30;1.30;;;;;;;;;;5009995;28;20036;-82
2021/10/02 15:50:24;;;;;;;3.72;1.30;;;;;;;;;;5139225;23;20057;-81
2021/10/02 15:52:54;;;;;;;4.22;1.50;;;;;;;;;;5040795;28;20701;-81
2021/10/02 15:55:24;;;;;;;5.15;1.50;;;;;;;;;;5057623;28;20062;-80
2021/10/02 15:58:00;;;;;;;3.80;1.50;;;;;;;;;;5078174;28;20035;-82
2021/10/02 16:00:28;;;;;;;4.47;1.60;;;;;;;;;;5069650;28;20044;-81
2021/10/02 16:03:10;;;;;;;;;;;;;;;;;;;;;
2021/10/02 16:05:46;;;;;;;4.38;1.50;;;;;;;;;;5079459;28;20016;-80
2021/10/02 16:08:16;;;;;;;3.00;1.30;;;;;;;;;;5062754;28;20036;-80
2021/10/02 16:11:05;;;;;;;2.75;1.35;;;;;;;;;;5040835;28;20086;-83
2021/10/02 16:13:56;;;;;;;5.10;1.80;;;;;;;;;;5076804;28;20097;-83
2021/10/02 16:16:25;;;;;;;5.03;1.30;;;;;;;;;;5059630;28;20033;-82